sensor_id;sensor_type;location;lat;lon;timestamp;P1;durP1;ratioP1;P2;durP2;ratioP2
70800;SDS011;59616;52.170;5.386;2022-11-20T00:02:45;18.20;;;5.97;;
70800;SDS011;59616;52.170;5.386;2022-11-20T00:05:12;16.33;;;6.28;;
70800;SDS011;59616;52.170;5.386;2022-11-20T00:07:39;17.50;;;6.35;;
70800;SDS011;59616;52.170;5.386;2022-11-20T00:10:07;17.55;;;6.63;;
70800;SDS011;59616;52.170;5.386;2022-11-20T00:12:34;18.67;;;6.70;;
70800;SDS011;59616;52.170;5.386;2022-11-20T00:15:02;20.05;;;7.03;;
70800;SDS011;59616;52.170;5.386;2022-11-20T00:17:29;19.15;;;6.97;;
70800;SDS011;59616;52.170;5.386;2022-11-20T00:19:56;19.50;;;7.45;;
70800;SDS011;59616;52.170;5.386;2022-11-20T00:22:23;23.00;;;7.85;;
70800;SDS011;59616;52.170;5.386;2022-11-20T00:24:50;20.20;;;7.10;;
70800;SDS011;59616;52.170;5.386;2022-11-20T00:27:17;21.85;;;8.63;;
70800;SDS011;59616;52.170;5.386;2022-11-20T00:29:45;24.90;;;8.50;;
70800;SDS011;59616;52.170;5.386;2022-11-20T00:32:12;25.80;;;8.85;;
70800;SDS011;59616;52.170;5.386;2022-11-20T00:34:39;26.75;;;8.77;;
70800;SDS011;59616;52.170;5.386;2022-11-20T00:37:06;28.88;;;10.02;;
70800;SDS011;59616;52.170;5.386;2022-11-20T00:39:33;27.13;;;9.68;;
70800;SDS011;59616;52.170;5.386;2022-11-20T00:42:01;35.78;;;11.20;;
70800;SDS011;59616;52.170;5.386;2022-11-20T00:44:28;25.38;;;9.73;;
70800;SDS011;59616;52.170;5.386;2022-11-20T00:46:55;37.33;;;11.32;;
70800;SDS011;59616;52.170;5.386;2022-11-20T00:49:22;31.35;;;11.10;;
70800;SDS011;59616;52.170;5.386;2022-11-20T00:54:16;26.40;;;9.60;;
70800;SDS011;59616;52.170;5.386;2022-11-20T00:56:43;33.60;;;11.27;;
70800;SDS011;59616;52.170;5.386;2022-11-20T00:59:10;32.75;;;10.85;;
70800;SDS011;59616;52.170;5.386;2022-11-20T01:01:37;30.20;;;10.30;;
70800;SDS011;59616;52.170;5.386;2022-11-20T01:06:32;22.60;;;9.43;;
70800;SDS011;59616;52.170;5.386;2022-11-20T01:09:01;24.73;;;9.13;;
70800;SDS011;59616;52.170;5.386;2022-11-20T01:11:30;23.52;;;9.15;;
70800;SDS011;59616;52.170;5.386;2022-11-20T01:13:58;25.98;;;8.55;;
70800;SDS011;59616;52.170;5.386;2022-11-20T01:16:35;28.77;;;9.00;;
70800;SDS011;59616;52.170;5.386;2022-11-20T01:19:04;24.35;;;8.90;;
70800;SDS011;59616;52.170;5.386;2022-11-20T01:21:32;24.83;;;8.38;;
70800;SDS011;59616;52.170;5.386;2022-11-20T01:24:00;24.05;;;8.60;;
70800;SDS011;59616;52.170;5.386;2022-11-20T01:26:28;27.75;;;8.68;;
70800;SDS011;59616;52.170;5.386;2022-11-20T01:28:56;23.45;;;7.82;;
70800;SDS011;59616;52.170;5.386;2022-11-20T01:33:51;20.73;;;7.22;;
70800;SDS011;59616;52.170;5.386;2022-11-20T01:36:19;20.30;;;7.40;;
70800;SDS011;59616;52.170;5.386;2022-11-20T01:38:47;21.42;;;8.05;;
70800;SDS011;59616;52.170;5.386;2022-11-20T01:41:15;22.33;;;8.80;;
70800;SDS011;59616;52.170;5.386;2022-11-20T01:44:01;23.67;;;7.22;;
70800;SDS011;59616;52.170;5.386;2022-11-20T01:46:29;22.83;;;8.13;;
70800;SDS011;59616;52.170;5.386;2022-11-20T01:51:48;22.50;;;8.07;;
70800;SDS011;59616;52.170;5.386;2022-11-20T01:54:22;19.67;;;7.47;;
70800;SDS011;59616;52.170;5.386;2022-11-20T01:56:51;21.13;;;8.13;;
70800;SDS011;59616;52.170;5.386;2022-11-20T01:59:20;20.45;;;7.30;;
70800;SDS011;59616;52.170;5.386;2022-11-20T02:01:49;22.63;;;7.43;;
70800;SDS011;59616;52.170;5.386;2022-11-20T02:04:16;23.40;;;7.38;;
70800;SDS011;59616;52.170;5.386;2022-11-20T02:06:48;21.17;;;7.38;;
70800;SDS011;59616;52.170;5.386;2022-11-20T02:09:16;22.92;;;8.07;;
70800;SDS011;59616;52.170;5.386;2022-11-20T02:11:44;16.90;;;7.05;;
70800;SDS011;59616;52.170;5.386;2022-11-20T02:14:11;22.27;;;7.32;;
70800;SDS011;59616;52.170;5.386;2022-11-20T02:16:45;20.67;;;6.72;;
70800;SDS011;59616;52.170;5.386;2022-11-20T02:21:59;20.98;;;6.97;;
70800;SDS011;59616;52.170;5.386;2022-11-20T02:24:27;18.88;;;7.63;;
70800;SDS011;59616;52.170;5.386;2022-11-20T02:26:56;21.35;;;6.82;;
70800;SDS011;59616;52.170;5.386;2022-11-20T02:29:36;22.67;;;6.60;;
70800;SDS011;59616;52.170;5.386;2022-11-20T02:32:04;20.42;;;7.60;;
70800;SDS011;59616;52.170;5.386;2022-11-20T02:36:58;18.65;;;5.90;;
70800;SDS011;59616;52.170;5.386;2022-11-20T02:39:26;18.25;;;5.75;;
70800;SDS011;59616;52.170;5.386;2022-11-20T02:41:54;19.90;;;7.00;;
70800;SDS011;59616;52.170;5.386;2022-11-20T02:44:23;15.82;;;6.20;;
70800;SDS011;59616;52.170;5.386;2022-11-20T02:46:50;17.90;;;6.65;;
70800;SDS011;59616;52.170;5.386;2022-11-20T02:49:17;18.80;;;6.97;;
70800;SDS011;59616;52.170;5.386;2022-11-20T02:51:45;19.45;;;6.82;;
70800;SDS011;59616;52.170;5.386;2022-11-20T02:54:12;18.33;;;6.50;;
70800;SDS011;59616;52.170;5.386;2022-11-20T02:56:39;20.10;;;6.95;;
70800;SDS011;59616;52.170;5.386;2022-11-20T02:59:06;19.33;;;7.03;;
70800;SDS011;59616;52.170;5.386;2022-11-20T03:01:34;21.20;;;7.85;;
70800;SDS011;59616;52.170;5.386;2022-11-20T03:04:01;19.90;;;6.80;;
70800;SDS011;59616;52.170;5.386;2022-11-20T03:08:55;19.33;;;7.25;;
70800;SDS011;59616;52.170;5.386;2022-11-20T03:11:22;18.90;;;6.43;;
70800;SDS011;59616;52.170;5.386;2022-11-20T03:13:49;18.55;;;6.55;;
70800;SDS011;59616;52.170;5.386;2022-11-20T03:16:17;24.77;;;7.13;;
70800;SDS011;59616;52.170;5.386;2022-11-20T03:18:45;16.65;;;6.10;;
70800;SDS011;59616;52.170;5.386;2022-11-20T03:21:12;16.20;;;6.47;;
70800;SDS011;59616;52.170;5.386;2022-11-20T03:23:40;15.63;;;6.05;;
70800;SDS011;59616;52.170;5.386;2022-11-20T03:28:39;17.17;;;6.18;;
70800;SDS011;59616;52.170;5.386;2022-11-20T03:33:34;19.02;;;5.65;;
70800;SDS011;59616;52.170;5.386;2022-11-20T03:36:02;16.50;;;6.25;;
70800;SDS011;59616;52.170;5.386;2022-11-20T03:38:30;17.38;;;5.63;;
70800;SDS011;59616;52.170;5.386;2022-11-20T03:41:01;16.83;;;5.85;;
70800;SDS011;59616;52.170;5.386;2022-11-20T03:43:29;15.77;;;5.53;;
70800;SDS011;59616;52.170;5.386;2022-11-20T03:45:56;21.50;;;7.00;;
70800;SDS011;59616;52.170;5.386;2022-11-20T03:50:51;13.55;;;5.07;;
70800;SDS011;59616;52.170;5.386;2022-11-20T03:53:19;16.80;;;6.03;;
70800;SDS011;59616;52.170;5.386;2022-11-20T03:55:50;18.65;;;6.28;;
70800;SDS011;59616;52.170;5.386;2022-11-20T03:58:17;18.90;;;5.75;;
70800;SDS011;59616;52.170;5.386;2022-11-20T04:00:44;16.92;;;5.63;;
70800;SDS011;59616;52.170;5.386;2022-11-20T04:03:11;14.38;;;5.90;;
70800;SDS011;59616;52.170;5.386;2022-11-20T04:05:38;15.40;;;5.93;;
70800;SDS011;59616;52.170;5.386;2022-11-20T04:08:06;16.83;;;5.85;;
70800;SDS011;59616;52.170;5.386;2022-11-20T04:10:33;20.08;;;6.53;;
70800;SDS011;59616;52.170;5.386;2022-11-20T04:13:00;15.50;;;6.28;;
70800;SDS011;59616;52.170;5.386;2022-11-20T04:15:27;19.42;;;6.15;;
70800;SDS011;59616;52.170;5.386;2022-11-20T04:18:00;18.35;;;6.13;;
70800;SDS011;59616;52.170;5.386;2022-11-20T04:20:27;18.73;;;6.70;;
70800;SDS011;59616;52.170;5.386;2022-11-20T04:22:55;18.45;;;6.28;;
70800;SDS011;59616;52.170;5.386;2022-11-20T04:25:22;13.05;;;5.50;;
70800;SDS011;59616;52.170;5.386;2022-11-20T04:27:49;14.55;;;5.55;;
70800;SDS011;59616;52.170;5.386;2022-11-20T04:30:16;18.88;;;6.07;;
70800;SDS011;59616;52.170;5.386;2022-11-20T04:32:43;18.88;;;6.65;;
70800;SDS011;59616;52.170;5.386;2022-11-20T04:35:10;18.38;;;6.72;;
70800;SDS011;59616;52.170;5.386;2022-11-20T04:37:37;14.50;;;5.95;;
70800;SDS011;59616;52.170;5.386;2022-11-20T04:40:05;15.70;;;6.03;;
70800;SDS011;59616;52.170;5.386;2022-11-20T04:44:58;19.10;;;5.95;;
70800;SDS011;59616;52.170;5.386;2022-11-20T04:47:26;18.52;;;5.80;;
70800;SDS011;59616;52.170;5.386;2022-11-20T04:49:53;17.77;;;6.25;;
70800;SDS011;59616;52.170;5.386;2022-11-20T04:52:20;20.23;;;6.97;;
70800;SDS011;59616;52.170;5.386;2022-11-20T04:54:47;17.35;;;6.57;;
70800;SDS011;59616;52.170;5.386;2022-11-20T04:57:14;19.35;;;7.10;;
70800;SDS011;59616;52.170;5.386;2022-11-20T04:59:41;21.50;;;6.80;;
70800;SDS011;59616;52.170;5.386;2022-11-20T05:04:36;15.57;;;5.80;;
70800;SDS011;59616;52.170;5.386;2022-11-20T05:07:03;21.40;;;6.57;;
70800;SDS011;59616;52.170;5.386;2022-11-20T05:09:30;18.00;;;6.45;;
70800;SDS011;59616;52.170;5.386;2022-11-20T05:11:57;19.20;;;7.10;;
70800;SDS011;59616;52.170;5.386;2022-11-20T05:14:25;15.05;;;6.15;;
70800;SDS011;59616;52.170;5.386;2022-11-20T05:16:52;19.20;;;6.22;;
70800;SDS011;59616;52.170;5.386;2022-11-20T05:19:19;17.90;;;6.38;;
70800;SDS011;59616;52.170;5.386;2022-11-20T05:21:46;17.80;;;5.97;;
70800;SDS011;59616;52.170;5.386;2022-11-20T05:24:14;17.55;;;6.03;;
70800;SDS011;59616;52.170;5.386;2022-11-20T05:26:41;16.40;;;5.75;;
70800;SDS011;59616;52.170;5.386;2022-11-20T05:29:11;18.83;;;6.25;;
70800;SDS011;59616;52.170;5.386;2022-11-20T05:31:42;22.42;;;6.50;;
70800;SDS011;59616;52.170;5.386;2022-11-20T05:34:09;19.05;;;6.75;;
70800;SDS011;59616;52.170;5.386;2022-11-20T05:36:36;16.83;;;6.72;;
70800;SDS011;59616;52.170;5.386;2022-11-20T05:39:03;16.92;;;6.00;;
70800;SDS011;59616;52.170;5.386;2022-11-20T05:41:30;14.32;;;6.10;;
70800;SDS011;59616;52.170;5.386;2022-11-20T05:43:59;14.93;;;6.03;;
70800;SDS011;59616;52.170;5.386;2022-11-20T05:46:26;20.23;;;6.35;;
70800;SDS011;59616;52.170;5.386;2022-11-20T05:48:55;18.63;;;6.60;;
70800;SDS011;59616;52.170;5.386;2022-11-20T05:51:23;18.42;;;6.80;;
70800;SDS011;59616;52.170;5.386;2022-11-20T05:56:17;19.02;;;7.10;;
70800;SDS011;59616;52.170;5.386;2022-11-20T05:58:45;15.18;;;6.47;;
70800;SDS011;59616;52.170;5.386;2022-11-20T06:01:17;17.63;;;6.35;;
70800;SDS011;59616;52.170;5.386;2022-11-20T06:03:45;18.45;;;7.40;;
70800;SDS011;59616;52.170;5.386;2022-11-20T06:06:14;19.63;;;7.43;;
70800;SDS011;59616;52.170;5.386;2022-11-20T06:08:41;21.63;;;7.75;;
70800;SDS011;59616;52.170;5.386;2022-11-20T06:11:09;21.67;;;8.10;;
70800;SDS011;59616;52.170;5.386;2022-11-20T06:13:36;21.33;;;7.88;;
70800;SDS011;59616;52.170;5.386;2022-11-20T06:16:07;24.13;;;8.05;;
70800;SDS011;59616;52.170;5.386;2022-11-20T06:18:34;23.05;;;7.78;;
70800;SDS011;59616;52.170;5.386;2022-11-20T06:21:02;20.95;;;7.50;;
70800;SDS011;59616;52.170;5.386;2022-11-20T06:23:31;20.95;;;7.22;;
70800;SDS011;59616;52.170;5.386;2022-11-20T06:26:06;16.27;;;6.45;;
70800;SDS011;59616;52.170;5.386;2022-11-20T06:28:34;23.85;;;6.60;;
70800;SDS011;59616;52.170;5.386;2022-11-20T06:31:01;16.92;;;6.28;;
70800;SDS011;59616;52.170;5.386;2022-11-20T06:33:29;19.77;;;7.22;;
70800;SDS011;59616;52.170;5.386;2022-11-20T06:35:57;18.13;;;6.88;;
70800;SDS011;59616;52.170;5.386;2022-11-20T06:38:28;21.45;;;7.35;;
70800;SDS011;59616;52.170;5.386;2022-11-20T06:40:55;21.08;;;7.75;;
70800;SDS011;59616;52.170;5.386;2022-11-20T06:43:23;17.67;;;6.53;;
70800;SDS011;59616;52.170;5.386;2022-11-20T06:45:53;21.02;;;8.50;;
70800;SDS011;59616;52.170;5.386;2022-11-20T06:48:21;19.95;;;7.25;;
70800;SDS011;59616;52.170;5.386;2022-11-20T06:50:48;21.75;;;7.25;;
70800;SDS011;59616;52.170;5.386;2022-11-20T06:53:15;19.83;;;7.57;;
70800;SDS011;59616;52.170;5.386;2022-11-20T06:55:43;20.00;;;6.85;;
70800;SDS011;59616;52.170;5.386;2022-11-20T06:58:11;19.38;;;7.57;;
70800;SDS011;59616;52.170;5.386;2022-11-20T07:03:05;19.95;;;6.95;;
70800;SDS011;59616;52.170;5.386;2022-11-20T07:05:32;17.58;;;6.70;;
70800;SDS011;59616;52.170;5.386;2022-11-20T07:08:00;26.35;;;9.45;;
70800;SDS011;59616;52.170;5.386;2022-11-20T07:10:27;22.70;;;8.20;;
70800;SDS011;59616;52.170;5.386;2022-11-20T07:12:54;16.75;;;6.88;;
70800;SDS011;59616;52.170;5.386;2022-11-20T07:15:22;20.92;;;8.20;;
70800;SDS011;59616;52.170;5.386;2022-11-20T07:17:49;17.90;;;7.50;;
70800;SDS011;59616;52.170;5.386;2022-11-20T07:20:17;23.83;;;7.95;;
70800;SDS011;59616;52.170;5.386;2022-11-20T07:22:44;22.33;;;9.02;;
70800;SDS011;59616;52.170;5.386;2022-11-20T07:25:11;24.67;;;7.68;;
70800;SDS011;59616;52.170;5.386;2022-11-20T07:27:38;21.73;;;8.10;;
70800;SDS011;59616;52.170;5.386;2022-11-20T07:30:05;16.95;;;6.90;;
70800;SDS011;59616;52.170;5.386;2022-11-20T07:34:59;20.05;;;6.28;;
70800;SDS011;59616;52.170;5.386;2022-11-20T07:37:26;19.42;;;6.40;;
70800;SDS011;59616;52.170;5.386;2022-11-20T07:39:53;21.83;;;7.13;;
70800;SDS011;59616;52.170;5.386;2022-11-20T07:42:21;20.98;;;7.65;;
70800;SDS011;59616;52.170;5.386;2022-11-20T07:44:49;18.50;;;7.10;;
70800;SDS011;59616;52.170;5.386;2022-11-20T07:47:17;21.60;;;7.10;;
70800;SDS011;59616;52.170;5.386;2022-11-20T07:49:44;19.30;;;7.20;;
70800;SDS011;59616;52.170;5.386;2022-11-20T07:52:11;26.48;;;9.57;;
70800;SDS011;59616;52.170;5.386;2022-11-20T07:54:38;24.80;;;9.13;;
70800;SDS011;59616;52.170;5.386;2022-11-20T07:57:05;24.77;;;8.77;;
70800;SDS011;59616;52.170;5.386;2022-11-20T07:59:32;26.00;;;8.73;;
70800;SDS011;59616;52.170;5.386;2022-11-20T08:01:59;20.73;;;6.97;;
70800;SDS011;59616;52.170;5.386;2022-11-20T08:04:26;20.95;;;7.00;;
70800;SDS011;59616;52.170;5.386;2022-11-20T08:06:53;20.67;;;7.97;;
70800;SDS011;59616;52.170;5.386;2022-11-20T08:09:21;22.23;;;7.93;;
70800;SDS011;59616;52.170;5.386;2022-11-20T08:11:48;24.50;;;7.63;;
70800;SDS011;59616;52.170;5.386;2022-11-20T08:14:34;21.90;;;8.27;;
70800;SDS011;59616;52.170;5.386;2022-11-20T08:17:01;23.48;;;7.93;;
70800;SDS011;59616;52.170;5.386;2022-11-20T08:19:28;25.02;;;8.18;;
70800;SDS011;59616;52.170;5.386;2022-11-20T08:21:56;17.77;;;6.32;;
70800;SDS011;59616;52.170;5.386;2022-11-20T08:24:23;23.27;;;7.97;;
70800;SDS011;59616;52.170;5.386;2022-11-20T08:26:52;17.88;;;7.30;;
70800;SDS011;59616;52.170;5.386;2022-11-20T08:29:19;21.05;;;7.40;;
70800;SDS011;59616;52.170;5.386;2022-11-20T08:31:47;17.95;;;7.68;;
70800;SDS011;59616;52.170;5.386;2022-11-20T08:34:14;19.60;;;7.72;;
70800;SDS011;59616;52.170;5.386;2022-11-20T08:36:44;18.73;;;7.55;;
70800;SDS011;59616;52.170;5.386;2022-11-20T08:39:13;23.38;;;8.55;;
70800;SDS011;59616;52.170;5.386;2022-11-20T08:41:40;20.83;;;7.93;;
70800;SDS011;59616;52.170;5.386;2022-11-20T08:44:07;21.08;;;8.60;;
70800;SDS011;59616;52.170;5.386;2022-11-20T08:46:44;24.38;;;9.98;;
70800;SDS011;59616;52.170;5.386;2022-11-20T08:49:12;22.20;;;7.82;;
70800;SDS011;59616;52.170;5.386;2022-11-20T08:51:40;24.58;;;8.90;;
70800;SDS011;59616;52.170;5.386;2022-11-20T08:54:07;22.42;;;7.72;;
70800;SDS011;59616;52.170;5.386;2022-11-20T08:59:01;21.95;;;8.30;;
70800;SDS011;59616;52.170;5.386;2022-11-20T09:01:48;22.35;;;9.48;;
70800;SDS011;59616;52.170;5.386;2022-11-20T09:04:16;20.77;;;7.55;;
70800;SDS011;59616;52.170;5.386;2022-11-20T09:06:43;24.30;;;8.63;;
70800;SDS011;59616;52.170;5.386;2022-11-20T09:09:10;21.23;;;7.82;;
70800;SDS011;59616;52.170;5.386;2022-11-20T09:11:37;19.40;;;7.45;;
70800;SDS011;59616;52.170;5.386;2022-11-20T09:14:04;19.90;;;7.65;;
70800;SDS011;59616;52.170;5.386;2022-11-20T09:16:32;23.35;;;7.93;;
70800;SDS011;59616;52.170;5.386;2022-11-20T09:18:59;19.40;;;7.32;;
70800;SDS011;59616;52.170;5.386;2022-11-20T09:21:46;19.95;;;7.35;;
70800;SDS011;59616;52.170;5.386;2022-11-20T09:24:13;20.65;;;7.43;;
70800;SDS011;59616;52.170;5.386;2022-11-20T09:26:40;23.27;;;8.80;;
70800;SDS011;59616;52.170;5.386;2022-11-20T09:29:07;19.70;;;7.80;;
70800;SDS011;59616;52.170;5.386;2022-11-20T09:31:34;23.63;;;8.27;;
70800;SDS011;59616;52.170;5.386;2022-11-20T09:36:28;19.13;;;7.38;;
70800;SDS011;59616;52.170;5.386;2022-11-20T09:38:55;22.83;;;8.32;;
70800;SDS011;59616;52.170;5.386;2022-11-20T09:41:28;22.50;;;8.02;;
70800;SDS011;59616;52.170;5.386;2022-11-20T09:46:48;21.92;;;7.97;;
70800;SDS011;59616;52.170;5.386;2022-11-20T09:51:58;18.48;;;7.38;;
70800;SDS011;59616;52.170;5.386;2022-11-20T09:54:27;21.45;;;8.05;;
70800;SDS011;59616;52.170;5.386;2022-11-20T09:56:59;22.08;;;9.15;;
70800;SDS011;59616;52.170;5.386;2022-11-20T09:59:37;23.58;;;8.68;;
70800;SDS011;59616;52.170;5.386;2022-11-20T10:07:50;19.23;;;7.60;;
70800;SDS011;59616;52.170;5.386;2022-11-20T10:10:29;22.70;;;8.68;;
70800;SDS011;59616;52.170;5.386;2022-11-20T10:23:40;24.27;;;8.70;;
70800;SDS011;59616;52.170;5.386;2022-11-20T10:28:46;22.00;;;8.57;;
70800;SDS011;59616;52.170;5.386;2022-11-20T10:31:31;22.30;;;9.18;;
70800;SDS011;59616;52.170;5.386;2022-11-20T10:34:00;23.30;;;9.02;;
70800;SDS011;59616;52.170;5.386;2022-11-20T10:36:56;24.42;;;9.48;;
70800;SDS011;59616;52.170;5.386;2022-11-20T10:39:33;22.35;;;8.20;;
70800;SDS011;59616;52.170;5.386;2022-11-20T10:42:02;23.38;;;8.85;;
70800;SDS011;59616;52.170;5.386;2022-11-20T10:44:31;24.67;;;9.05;;
70800;SDS011;59616;52.170;5.386;2022-11-20T10:47:21;26.42;;;9.88;;
70800;SDS011;59616;52.170;5.386;2022-11-20T10:49:50;27.42;;;9.65;;
70800;SDS011;59616;52.170;5.386;2022-11-20T10:52:28;27.30;;;10.15;;
70800;SDS011;59616;52.170;5.386;2022-11-20T10:55:06;27.35;;;9.90;;
70800;SDS011;59616;52.170;5.386;2022-11-20T11:00:06;27.80;;;9.65;;
70800;SDS011;59616;52.170;5.386;2022-11-20T11:02:35;27.55;;;9.75;;
70800;SDS011;59616;52.170;5.386;2022-11-20T11:05:31;27.75;;;10.13;;
70800;SDS011;59616;52.170;5.386;2022-11-20T11:08:03;27.15;;;9.48;;
70800;SDS011;59616;52.170;5.386;2022-11-20T11:11:07;26.15;;;9.82;;
70800;SDS011;59616;52.170;5.386;2022-11-20T11:13:26;31.02;;;9.93;;
70800;SDS011;59616;52.170;5.386;2022-11-20T11:15:54;25.98;;;8.73;;
70800;SDS011;59616;52.170;5.386;2022-11-20T11:18:25;28.17;;;10.52;;
70800;SDS011;59616;52.170;5.386;2022-11-20T11:20:53;29.00;;;10.50;;
70800;SDS011;59616;52.170;5.386;2022-11-20T11:26:04;26.38;;;9.80;;
70800;SDS011;59616;52.170;5.386;2022-11-20T11:28:32;26.10;;;10.23;;
70800;SDS011;59616;52.170;5.386;2022-11-20T11:30:59;31.15;;;11.70;;
70800;SDS011;59616;52.170;5.386;2022-11-20T11:35:58;30.55;;;10.60;;
70800;SDS011;59616;52.170;5.386;2022-11-20T11:38:30;33.20;;;11.18;;
70800;SDS011;59616;52.170;5.386;2022-11-20T11:41:00;26.48;;;10.35;;
70800;SDS011;59616;52.170;5.386;2022-11-20T11:43:32;26.10;;;10.45;;
70800;SDS011;59616;52.170;5.386;2022-11-20T11:48:56;30.75;;;11.52;;
70800;SDS011;59616;52.170;5.386;2022-11-20T11:54:00;32.58;;;11.85;;
70800;SDS011;59616;52.170;5.386;2022-11-20T11:56:28;28.60;;;11.25;;
70800;SDS011;59616;52.170;5.386;2022-11-20T11:58:56;28.20;;;10.80;;
70800;SDS011;59616;52.170;5.386;2022-11-20T12:01:42;35.55;;;11.63;;
70800;SDS011;59616;52.170;5.386;2022-11-20T12:04:20;34.17;;;12.05;;
70800;SDS011;59616;52.170;5.386;2022-11-20T12:06:53;31.02;;;11.45;;
70800;SDS011;59616;52.170;5.386;2022-11-20T12:09:31;29.98;;;11.35;;
70800;SDS011;59616;52.170;5.386;2022-11-20T12:12:05;32.85;;;12.10;;
70800;SDS011;59616;52.170;5.386;2022-11-20T12:14:39;30.75;;;11.60;;
70800;SDS011;59616;52.170;5.386;2022-11-20T12:17:11;29.25;;;11.70;;
70800;SDS011;59616;52.170;5.386;2022-11-20T12:19:38;34.63;;;12.25;;
70800;SDS011;59616;52.170;5.386;2022-11-20T12:35:17;30.88;;;10.82;;
70800;SDS011;59616;52.170;5.386;2022-11-20T12:43:42;30.95;;;11.35;;
70800;SDS011;59616;52.170;5.386;2022-11-20T12:46:36;27.20;;;10.93;;
70800;SDS011;59616;52.170;5.386;2022-11-20T12:57:07;31.10;;;11.25;;
70800;SDS011;59616;52.170;5.386;2022-11-20T13:07:31;30.30;;;10.70;;
70800;SDS011;59616;52.170;5.386;2022-11-20T13:09:59;27.35;;;10.40;;
70800;SDS011;59616;52.170;5.386;2022-11-20T13:12:39;28.65;;;11.20;;
70800;SDS011;59616;52.170;5.386;2022-11-20T13:17:54;27.73;;;10.68;;
70800;SDS011;59616;52.170;5.386;2022-11-20T13:20:22;29.38;;;11.65;;
70800;SDS011;59616;52.170;5.386;2022-11-20T13:25:28;31.27;;;11.77;;
70800;SDS011;59616;52.170;5.386;2022-11-20T13:27:56;33.08;;;11.43;;
70800;SDS011;59616;52.170;5.386;2022-11-20T13:30:27;30.73;;;11.63;;
70800;SDS011;59616;52.170;5.386;2022-11-20T13:35:35;29.20;;;11.75;;
70800;SDS011;59616;52.170;5.386;2022-11-20T13:38:13;30.33;;;11.77;;
70800;SDS011;59616;52.170;5.386;2022-11-20T13:40:51;29.73;;;10.50;;
70800;SDS011;59616;52.170;5.386;2022-11-20T13:48:23;30.92;;;11.30;;
70800;SDS011;59616;52.170;5.386;2022-11-20T13:50:55;28.90;;;11.73;;
70800;SDS011;59616;52.170;5.386;2022-11-20T13:57:34;33.53;;;12.35;;
70800;SDS011;59616;52.170;5.386;2022-11-20T13:59:33;33.55;;;11.98;;
70800;SDS011;59616;52.170;5.386;2022-11-20T14:02:03;31.00;;;11.68;;
70800;SDS011;59616;52.170;5.386;2022-11-20T14:04:36;34.47;;;12.93;;
70800;SDS011;59616;52.170;5.386;2022-11-20T14:07:05;34.13;;;12.32;;
70800;SDS011;59616;52.170;5.386;2022-11-20T14:09:33;33.80;;;12.45;;
70800;SDS011;59616;52.170;5.386;2022-11-20T14:12:01;35.38;;;12.68;;
70800;SDS011;59616;52.170;5.386;2022-11-20T14:14:30;30.35;;;11.35;;
70800;SDS011;59616;52.170;5.386;2022-11-20T14:17:05;35.72;;;13.00;;
70800;SDS011;59616;52.170;5.386;2022-11-20T14:19:32;33.97;;;11.32;;
70800;SDS011;59616;52.170;5.386;2022-11-20T14:22:08;32.03;;;12.55;;
70800;SDS011;59616;52.170;5.386;2022-11-20T14:24:35;31.50;;;11.63;;
70800;SDS011;59616;52.170;5.386;2022-11-20T14:29:33;31.58;;;11.27;;
70800;SDS011;59616;52.170;5.386;2022-11-20T14:32:00;31.30;;;9.63;;
70800;SDS011;59616;52.170;5.386;2022-11-20T14:34:28;31.98;;;11.85;;
70800;SDS011;59616;52.170;5.386;2022-11-20T14:37:00;36.42;;;12.75;;
70800;SDS011;59616;52.170;5.386;2022-11-20T14:39:34;36.47;;;12.73;;
70800;SDS011;59616;52.170;5.386;2022-11-20T14:42:23;30.17;;;11.05;;
70800;SDS011;59616;52.170;5.386;2022-11-20T14:44:50;31.48;;;11.48;;
70800;SDS011;59616;52.170;5.386;2022-11-20T14:47:21;33.78;;;12.27;;
70800;SDS011;59616;52.170;5.386;2022-11-20T14:49:49;30.90;;;11.02;;
70800;SDS011;59616;52.170;5.386;2022-11-20T14:52:18;31.05;;;12.23;;
70800;SDS011;59616;52.170;5.386;2022-11-20T14:54:47;28.90;;;10.90;;
70800;SDS011;59616;52.170;5.386;2022-11-20T14:59:48;28.77;;;11.13;;
70800;SDS011;59616;52.170;5.386;2022-11-20T15:04:56;32.42;;;11.95;;
70800;SDS011;59616;52.170;5.386;2022-11-20T15:07:26;31.80;;;12.55;;
70800;SDS011;59616;52.170;5.386;2022-11-20T15:10:05;33.53;;;12.80;;
70800;SDS011;59616;52.170;5.386;2022-11-20T15:12:32;33.72;;;12.98;;
70800;SDS011;59616;52.170;5.386;2022-11-20T15:15:01;33.30;;;12.00;;
70800;SDS011;59616;52.170;5.386;2022-11-20T15:17:29;33.53;;;12.10;;
70800;SDS011;59616;52.170;5.386;2022-11-20T15:19:57;34.08;;;12.40;;
70800;SDS011;59616;52.170;5.386;2022-11-20T15:22:25;39.05;;;14.38;;
70800;SDS011;59616;52.170;5.386;2022-11-20T15:27:19;32.33;;;11.77;;
70800;SDS011;59616;52.170;5.386;2022-11-20T15:32:13;35.70;;;12.88;;
70800;SDS011;59616;52.170;5.386;2022-11-20T15:37:07;29.50;;;11.55;;
70800;SDS011;59616;52.170;5.386;2022-11-20T15:39:34;36.10;;;12.73;;
70800;SDS011;59616;52.170;5.386;2022-11-20T15:44:27;32.83;;;11.98;;
70800;SDS011;59616;52.170;5.386;2022-11-20T15:46:55;36.90;;;12.40;;
70800;SDS011;59616;52.170;5.386;2022-11-20T15:51:49;28.83;;;11.50;;
70800;SDS011;59616;52.170;5.386;2022-11-20T15:54:19;31.98;;;12.27;;
70800;SDS011;59616;52.170;5.386;2022-11-20T15:56:48;33.95;;;14.68;;
70800;SDS011;59616;52.170;5.386;2022-11-20T15:59:18;40.83;;;13.88;;
70800;SDS011;59616;52.170;5.386;2022-11-20T16:01:45;35.95;;;12.45;;
70800;SDS011;59616;52.170;5.386;2022-11-20T16:04:14;38.83;;;13.25;;
70800;SDS011;59616;52.170;5.386;2022-11-20T16:06:41;37.42;;;14.20;;
70800;SDS011;59616;52.170;5.386;2022-11-20T16:09:09;40.25;;;15.48;;
70800;SDS011;59616;52.170;5.386;2022-11-20T16:14:03;31.45;;;12.13;;
70800;SDS011;59616;52.170;5.386;2022-11-20T16:16:50;38.25;;;12.77;;
70800;SDS011;59616;52.170;5.386;2022-11-20T16:19:17;35.20;;;13.27;;
70800;SDS011;59616;52.170;5.386;2022-11-20T16:24:12;31.50;;;11.60;;
70800;SDS011;59616;52.170;5.386;2022-11-20T16:26:40;42.35;;;13.82;;
70800;SDS011;59616;52.170;5.386;2022-11-20T16:29:07;39.88;;;13.38;;
70800;SDS011;59616;52.170;5.386;2022-11-20T16:34:02;31.95;;;12.35;;
70800;SDS011;59616;52.170;5.386;2022-11-20T16:36:38;32.72;;;12.23;;
70800;SDS011;59616;52.170;5.386;2022-11-20T16:39:05;35.65;;;13.15;;
70800;SDS011;59616;52.170;5.386;2022-11-20T16:44:00;30.15;;;12.43;;
70800;SDS011;59616;52.170;5.386;2022-11-20T16:46:28;29.50;;;11.43;;
70800;SDS011;59616;52.170;5.386;2022-11-20T16:53:51;28.83;;;11.10;;
70800;SDS011;59616;52.170;5.386;2022-11-20T16:56:19;30.67;;;11.95;;
70800;SDS011;59616;52.170;5.386;2022-11-20T16:58:47;30.88;;;12.20;;
70800;SDS011;59616;52.170;5.386;2022-11-20T17:01:15;31.45;;;12.25;;
70800;SDS011;59616;52.170;5.386;2022-11-20T17:03:43;24.90;;;11.27;;
70800;SDS011;59616;52.170;5.386;2022-11-20T17:06:12;32.28;;;11.45;;
70800;SDS011;59616;52.170;5.386;2022-11-20T17:08:39;29.70;;;11.98;;
70800;SDS011;59616;52.170;5.386;2022-11-20T17:11:11;36.35;;;12.45;;
70800;SDS011;59616;52.170;5.386;2022-11-20T17:13:39;28.05;;;12.73;;
70800;SDS011;59616;52.170;5.386;2022-11-20T17:16:07;32.65;;;12.73;;
70800;SDS011;59616;52.170;5.386;2022-11-20T17:18:35;29.58;;;11.75;;
70800;SDS011;59616;52.170;5.386;2022-11-20T17:21:02;33.80;;;13.38;;
70800;SDS011;59616;52.170;5.386;2022-11-20T17:23:31;37.53;;;14.65;;
70800;SDS011;59616;52.170;5.386;2022-11-20T17:26:03;36.15;;;14.45;;
70800;SDS011;59616;52.170;5.386;2022-11-20T17:28:30;34.88;;;13.43;;
70800;SDS011;59616;52.170;5.386;2022-11-20T17:30:58;30.80;;;12.90;;